METAR & TAF Report
Available data for CYAM from the past 6 hours
SAULT STE MARIE, ON
Metar
CYAM 240846Z VRB02KT 15SM -SN BKN054 BKN072 M12/M14 A2966 RMK SC6AC1 SLP058

08:46 UTC

Wind: ° 2kt

Visibility: 15 SM

Sky: BKN 5400 ft

Temp: -12 deg C / 10.4 deg F

Dewpoint: -14 deg C / 6.8 deg F

Pressure: 29.66 inHg

TAF
TAF CYAM 240738Z 2408/2420 VRB03KT P6SM BKN030 TEMPO 2408/2420 P6SM -SN BKN020 PROB30 2408/2412 2SM -FZDZ BR RMK NXT FCST BY 241400Z
NOTAM

Click here for NOTAMs.